• 10:15 – Планы по выпуску МС-21 есть, но желающих его покупать пока нет 
  • 11:05 – Производитель Ил-114-300 обсудил с представителями авикомпаний перспективы самолета 
  • 00:47 – HIA раскрывает планы дальнейшего развития 

Очередная авария грузового самолета в Колумбии

В Колумбии в аэропорту Летисия произошло крушение грузового авиалайнера Boeing B734, принадлежащего авиакомпании AerCaribe (бортовой номер HK-5197).

Воздушное судно выполняло рейс из Боготы с четырьмя членами экипажа на борту и примерно в 23:30 по местному времени приземлилось на полосе №21, но выкатилось за его пределы.

Никто из находившихся на борту судна не пострадал, однако конструкция самолета получила значительные повреждения. Колумбийское управление гражданской авиации сообщило, что Boeing упал на «брюхо», на мягкий грунт далеко за пределами ВВП, которая после аварии оставалась закрытой несколько часов. Длина полосы составляет 2010 метров. В настоящее время ВВП открыта, но до эвакуации B734, ее доступная продолжительность будет сокращена.



NOTAM:
A0305/17 - DTHR 03 FST 290M, LEN AVBL 1720 MTS. H24, 29 JAN 14:45 2017 UNTIL 06 FEB 23:00 2017 ESTIMATED. CREATED: 29 JAN 14:48 2017

A0300/17 NOTAMN
Q) SKED/QMRLC/IV/NBO/A/000/999/0411S06956W010
A) SKLT B) 1701282339 C) 1701291700 EST
E) RWY 03/21 CLSD

METAR:
SKLT 290200Z 00000KT 9999 SCT010 SCT080 25/24 A2989
SKLT 290100Z 00000KT 9999 SCT010 25/24 A2987 Redz
SKLT 290000Z 00000KT 8000 -DZ BKN010 25/25 A2984 RMK AD OPER IMC
SKLT 282300Z 00000KT 9999 -RA BKN010 BKN080 26/24 A2986 RMK AD OPER IMC
SKLT 282200Z 32003KT 9999 -DZ SCT010 BKN015 27/24 A2980 Rera
SKLT 282100Z 00000KT 9999 SCT010 BKN015 27/24 A2982
SKLT 282000Z 32004KT 9999 SCT012 BKN015 28/24 A2984
SKLT 281900Z 35004KT 9999 SCT012 BKN080 27/24 A2988
SKLT 281800Z VRB02KT 9999 BKN009 BKN080 26/24 A2990 RMK AD OPR IMC

Узнавайте новости первыми!
Введите необходимые данные, чтобы не пропустить ничего интересного:
Ваш E-mail в безопасности
Вся отправленная нам информация, не разглашается третьим лицам!



Аренда частного самолета

Аренда самолета

Отслеживание груза онлайн


  • Сегодня
  • Читаемое

Мы в соцсетях
  • Вконтакте
  • Facebook
  • OK.ru

Авиация в современном мире


Авиация – масштабная тема, которой интересуются как люди, профессионально занятые в этой сфере, так и обычные туристы. Новости авиации интересуют путешественников, собирающихся в поездку, людей, следящих за современными разработками в данной отрасли, а также читателей широкого круга, которым не безразлично, что происходит в современном мире.


Новости авиации сегодня


В Сети существует множество порталов, на которых публикуются новости авиа сегодня. Но именно на Aircargonews вы найдете максимально подробное освещение событий в области частной, грузовой авиации, рассказы о последних происшествиях. Особое внимание портал уделяет новостям гражданской авиации, которые по традиции вызывают повышенный интерес. Авторы статей Aircargonews одними из первых отзываются на все события в данной сфере, руководствуясь правилом, что новости бывают только свежими.


Если вас интересует авиация грузовая, о событиях в этой области вы также сможете прочитать на данном сайте. Обзоры самых известных грузовых самолетов, новости систем управления грузами, интересные сведения о перевозках в разных странах, – информацию обо всем этом вы найдете на Aircargonews.


Авиа новости – это интересно


Читать новости авиации – это актуально, познавательно и просто интересно. На сайте опубликованы не только деловые материалы, но и развлекательные статьи, которые понравятся даже читателям, далеким от темы авиации.


Кроме того, в разделе «Отчеты» размещаются статистические данные о работе аэропортов и авиаперевозчиков. Такие материалы всегда востребованы у специалистов узкого профиля.


Все статьи написаны легким языком, понятным широкому кругу читателей. Для портала пишут журналисты из разных стран бывшего СССР, что делает публикуемые материалы уникальными и разнообразными.


Не маловажно и то, что с помощью сервисов сайта вы можете заказать авиабилет в любую точку мира, забронировать номер в отеле или арендовать жилье, заказать трансфер. Комплексные туристические услуги и интересное чтение – то, чем портал Aircargonews готов радовать вас каждый день.


Читайте новости авиации сегодня на нашем портале и будьте в курсе всех значительных событий, происходящих в мире!